createdAt,value
2022-09-23T00:00:10.000Z,5.02
2022-09-23T00:01:11.000Z,4.95
2022-09-23T00:02:11.000Z,4.92
2022-09-23T00:03:11.000Z,4.88
2022-09-23T00:04:11.000Z,4.83
2022-09-23T00:05:11.000Z,4.80
2022-09-23T00:06:11.000Z,4.77
2022-09-23T00:07:11.000Z,4.73
2022-09-23T00:08:11.000Z,4.73
2022-09-23T00:09:11.000Z,4.75
2022-09-23T00:10:11.000Z,4.76
2022-09-23T00:11:11.000Z,4.75
2022-09-23T00:12:11.000Z,4.79
2022-09-23T00:13:11.000Z,4.76
2022-09-23T00:14:11.000Z,4.83
2022-09-23T00:15:11.000Z,4.86
2022-09-23T00:16:11.000Z,4.84
2022-09-23T00:17:11.000Z,4.86
2022-09-23T00:18:11.000Z,4.89
2022-09-23T00:19:11.000Z,4.84
2022-09-23T00:20:11.000Z,4.86
2022-09-23T00:21:11.000Z,4.88
2022-09-23T00:22:11.000Z,4.88
2022-09-23T00:23:11.000Z,4.89
2022-09-23T00:24:11.000Z,4.89
2022-09-23T00:25:11.000Z,4.86
2022-09-23T00:26:12.000Z,4.84
2022-09-23T00:27:12.000Z,4.88
2022-09-23T00:28:12.000Z,4.84
2022-09-23T00:29:12.000Z,4.84
2022-09-23T00:30:12.000Z,4.88
2022-09-23T00:31:12.000Z,4.88
2022-09-23T00:32:12.000Z,4.84
2022-09-23T00:33:12.000Z,4.88
2022-09-23T00:34:12.000Z,4.86
2022-09-23T00:35:12.000Z,4.88
2022-09-23T00:36:12.000Z,4.86
2022-09-23T00:37:12.000Z,4.89
2022-09-23T00:38:12.000Z,4.84
2022-09-23T00:39:12.000Z,4.89
2022-09-23T00:40:12.000Z,4.88
2022-09-23T00:41:12.000Z,4.89
2022-09-23T00:42:12.000Z,4.91
2022-09-23T00:43:12.000Z,4.84
2022-09-23T00:44:12.000Z,4.83
2022-09-23T00:45:12.000Z,4.86
2022-09-23T00:46:12.000Z,4.83
2022-09-23T00:47:12.000Z,4.84
2022-09-23T00:48:12.000Z,4.80
2022-09-23T00:49:13.000Z,4.80
2022-09-23T00:50:13.000Z,4.77
2022-09-23T00:51:13.000Z,4.76
2022-09-23T00:52:13.000Z,4.76
2022-09-23T00:53:13.000Z,4.77
2022-09-23T00:54:13.000Z,4.70
2022-09-23T00:55:13.000Z,4.67
2022-09-23T00:56:13.000Z,4.72
2022-09-23T00:57:13.000Z,4.67
2022-09-23T00:58:13.000Z,4.67
2022-09-23T00:59:13.000Z,4.67
2022-09-23T01:00:13.000Z,4.69
2022-09-23T01:01:13.000Z,4.67
2022-09-23T01:02:13.000Z,4.64
2022-09-23T01:03:13.000Z,4.64
2022-09-23T01:04:13.000Z,4.61
2022-09-23T01:05:13.000Z,4.61
2022-09-23T01:06:13.000Z,4.62
2022-09-23T01:07:13.000Z,4.65
2022-09-23T01:08:13.000Z,4.67
2022-09-23T01:09:13.000Z,4.64
2022-09-23T01:10:13.000Z,4.65
2022-09-23T01:11:13.000Z,4.64
2022-09-23T01:12:13.000Z,4.65
2022-09-23T01:13:14.000Z,4.69
2022-09-23T01:14:14.000Z,4.64
2022-09-23T01:15:14.000Z,4.65
2022-09-23T01:16:14.000Z,4.64
2022-09-23T01:17:14.000Z,4.65
2022-09-23T01:18:14.000Z,4.64
2022-09-23T01:19:14.000Z,4.61
2022-09-23T01:20:14.000Z,4.62
2022-09-23T01:21:14.000Z,4.65
2022-09-23T01:22:14.000Z,4.67
2022-09-23T01:23:14.000Z,4.65
2022-09-23T01:24:14.000Z,4.59
2022-09-23T01:25:14.000Z,4.62
2022-09-23T01:26:14.000Z,4.64
2022-09-23T01:27:14.000Z,4.62
2022-09-23T01:28:14.000Z,4.62
2022-09-23T01:29:14.000Z,4.61
2022-09-23T01:30:14.000Z,4.61
2022-09-23T01:31:14.000Z,4.58
2022-09-23T01:32:14.000Z,4.57
2022-09-23T01:33:14.000Z,4.57
2022-09-23T01:34:14.000Z,4.57
2022-09-23T01:35:14.000Z,4.57
2022-09-23T01:36:15.000Z,4.57
2022-09-23T01:37:15.000Z,4.57
2022-09-23T01:38:15.000Z,4.55
2022-09-23T01:39:15.000Z,4.55
2022-09-23T01:40:15.000Z,4.55
2022-09-23T01:41:15.000Z,4.61
2022-09-23T01:42:15.000Z,4.58
2022-09-23T01:43:15.000Z,4.62
2022-09-23T01:44:15.000Z,4.57
2022-09-23T01:45:15.000Z,4.55
2022-09-23T01:46:15.000Z,4.58
2022-09-23T01:47:15.000Z,4.59
2022-09-23T01:48:15.000Z,4.55
2022-09-23T01:49:15.000Z,4.57
2022-09-23T01:50:15.000Z,4.57
2022-09-23T01:51:15.000Z,4.52
2022-09-23T01:52:15.000Z,4.51
2022-09-23T01:53:15.000Z,4.44
2022-09-23T01:54:15.000Z,4.39
2022-09-23T01:55:15.000Z,4.36
2022-09-23T01:56:15.000Z,4.34
2022-09-23T01:57:15.000Z,4.34
2022-09-23T01:58:16.000Z,4.29
2022-09-23T01:59:16.000Z,4.28
2022-09-23T02:00:16.000Z,4.32
2022-09-23T02:01:16.000Z,4.33
2022-09-23T02:02:16.000Z,4.28
2022-09-23T02:03:16.000Z,4.36
2022-09-23T02:04:16.000Z,4.34
2022-09-23T02:05:16.000Z,4.40
2022-09-23T02:06:16.000Z,4.44
2022-09-23T02:07:16.000Z,4.50
2022-09-23T02:08:16.000Z,4.54
2022-09-23T02:09:16.000Z,4.50
2022-09-23T02:10:16.000Z,4.39
2022-09-23T02:11:16.000Z,4.25
2022-09-23T02:12:16.000Z,4.19
2022-09-23T02:13:16.000Z,4.18
2022-09-23T02:14:16.000Z,4.08
2022-09-23T02:15:16.000Z,4.06
2022-09-23T02:16:16.000Z,4.04
2022-09-23T02:17:16.000Z,4.01
2022-09-23T02:18:16.000Z,4.00
2022-09-23T02:19:16.000Z,3.98
2022-09-23T02:20:16.000Z,3.94
2022-09-23T02:21:17.000Z,3.92
2022-09-23T02:22:17.000Z,3.96
2022-09-23T02:23:17.000Z,3.92
2022-09-23T02:24:17.000Z,3.94
2022-09-23T02:25:17.000Z,3.92
2022-09-23T02:26:17.000Z,3.89
2022-09-23T02:27:17.000Z,3.89
2022-09-23T02:28:17.000Z,3.86
2022-09-23T02:29:17.000Z,3.86
2022-09-23T02:30:17.000Z,3.92
2022-09-23T02:31:17.000Z,3.86
2022-09-23T02:32:17.000Z,3.82
2022-09-23T02:33:17.000Z,3.83
2022-09-23T02:34:17.000Z,3.82
2022-09-23T02:35:17.000Z,3.78
2022-09-23T02:36:17.000Z,3.75
2022-09-23T02:37:17.000Z,3.76
2022-09-23T02:38:17.000Z,3.71
2022-09-23T02:39:17.000Z,3.72
2022-09-23T02:40:17.000Z,3.68
2022-09-23T02:41:17.000Z,3.64
2022-09-23T02:42:18.000Z,3.64
2022-09-23T02:43:18.000Z,3.61
2022-09-23T02:44:18.000Z,3.58
2022-09-23T02:45:18.000Z,3.62
2022-09-23T02:46:18.000Z,3.61
2022-09-23T02:47:18.000Z,3.62
2022-09-23T02:48:18.000Z,3.58
2022-09-23T02:49:18.000Z,3.58
2022-09-23T02:50:18.000Z,3.60
2022-09-23T02:51:18.000Z,3.61
2022-09-23T02:52:18.000Z,3.62
2022-09-23T02:53:18.000Z,3.67
2022-09-23T02:54:18.000Z,3.64
2022-09-23T02:55:18.000Z,3.67
2022-09-23T02:56:18.000Z,3.67
2022-09-23T02:57:18.000Z,3.68
2022-09-23T02:58:18.000Z,3.71
2022-09-23T02:59:18.000Z,3.70
2022-09-23T03:00:18.000Z,3.72
2022-09-23T03:01:18.000Z,3.76
2022-09-23T03:02:18.000Z,3.76
2022-09-23T03:03:19.000Z,3.78
2022-09-23T03:04:19.000Z,3.80
2022-09-23T03:05:19.000Z,3.83
2022-09-23T03:06:19.000Z,3.83
2022-09-23T03:07:19.000Z,3.86
2022-09-23T03:08:19.000Z,3.88
2022-09-23T03:09:19.000Z,3.86
2022-09-23T03:10:19.000Z,3.86
2022-09-23T03:11:19.000Z,3.82
2022-09-23T03:12:19.000Z,3.83
2022-09-23T03:13:19.000Z,3.80
2022-09-23T03:14:19.000Z,3.79
2022-09-23T03:15:19.000Z,3.78
2022-09-23T03:16:19.000Z,3.76
2022-09-23T03:17:19.000Z,3.72
2022-09-23T03:18:19.000Z,3.72
2022-09-23T03:19:19.000Z,3.71
2022-09-23T03:20:19.000Z,3.72
2022-09-23T03:21:20.000Z,3.65
2022-09-23T03:22:20.000Z,3.64
2022-09-23T03:23:20.000Z,3.67
2022-09-23T03:24:20.000Z,3.62
2022-09-23T03:25:20.000Z,3.61
2022-09-23T03:26:20.000Z,3.61
2022-09-23T03:27:20.000Z,3.64
2022-09-23T03:28:20.000Z,3.65
2022-09-23T03:29:20.000Z,3.61
2022-09-23T03:30:20.000Z,3.61
2022-09-23T03:31:20.000Z,3.64
2022-09-23T03:32:20.000Z,3.64
2022-09-23T03:33:20.000Z,3.70
2022-09-23T03:34:20.000Z,3.72
2022-09-23T03:35:20.000Z,3.72
2022-09-23T03:36:20.000Z,3.71
2022-09-23T03:37:20.000Z,3.68
2022-09-23T03:38:20.000Z,3.70
2022-09-23T03:39:21.000Z,3.67
2022-09-23T03:40:21.000Z,3.68
2022-09-23T03:41:21.000Z,3.62
2022-09-23T03:42:21.000Z,3.58
2022-09-23T03:43:21.000Z,3.57
2022-09-23T03:44:21.000Z,3.57
2022-09-23T03:45:21.000Z,3.54
2022-09-23T03:46:21.000Z,3.53
2022-09-23T03:47:21.000Z,3.52
2022-09-23T03:48:21.000Z,3.53
2022-09-23T03:49:21.000Z,3.53
2022-09-23T03:50:21.000Z,3.57
2022-09-23T03:51:21.000Z,3.54
2022-09-23T03:52:21.000Z,3.53
2022-09-23T03:53:21.000Z,3.57
2022-09-23T03:54:21.000Z,3.58
2022-09-23T03:55:21.000Z,3.62
2022-09-23T03:56:21.000Z,3.71
2022-09-23T03:57:22.000Z,3.76
2022-09-23T03:58:22.000Z,3.79
2022-09-23T03:59:22.000Z,3.83
2022-09-23T04:00:22.000Z,3.86
2022-09-23T04:01:22.000Z,3.90
2022-09-23T04:02:22.000Z,3.90
2022-09-23T04:03:22.000Z,3.98
2022-09-23T04:04:22.000Z,3.97
2022-09-23T04:05:22.000Z,3.97
2022-09-23T04:06:22.000Z,4.00
2022-09-23T04:07:22.000Z,4.00
2022-09-23T04:08:22.000Z,3.98
2022-09-23T04:09:22.000Z,4.00
2022-09-23T04:10:22.000Z,4.01
2022-09-23T04:11:22.000Z,4.00
2022-09-23T04:12:22.000Z,4.04
2022-09-23T04:13:22.000Z,4.07
2022-09-23T04:14:22.000Z,4.12
2022-09-23T04:15:23.000Z,4.08
2022-09-23T04:16:23.000Z,4.10
2022-09-23T04:17:23.000Z,4.07
2022-09-23T04:18:23.000Z,4.07
2022-09-23T04:19:23.000Z,4.10
2022-09-23T04:20:23.000Z,4.10
2022-09-23T04:21:23.000Z,4.10
2022-09-23T04:22:23.000Z,4.10
2022-09-23T04:23:23.000Z,4.12
2022-09-23T04:24:23.000Z,4.10
2022-09-23T04:25:23.000Z,4.14
2022-09-23T04:26:23.000Z,4.14
2022-09-23T04:27:23.000Z,4.15
2022-09-23T04:28:23.000Z,4.14
2022-09-23T04:29:23.000Z,4.16
2022-09-23T04:30:23.000Z,4.15
2022-09-23T04:31:23.000Z,4.18
2022-09-23T04:32:23.000Z,4.19
2022-09-23T04:33:24.000Z,4.21
2022-09-23T04:34:24.000Z,4.21
2022-09-23T04:35:24.000Z,4.19
2022-09-23T04:36:24.000Z,4.18
2022-09-23T04:37:24.000Z,4.18
2022-09-23T04:38:24.000Z,4.19
2022-09-23T04:39:24.000Z,4.15
2022-09-23T04:40:24.000Z,4.19
2022-09-23T04:41:24.000Z,4.16
2022-09-23T04:42:24.000Z,4.14
2022-09-23T04:43:24.000Z,4.19
2022-09-23T04:44:24.000Z,4.16
2022-09-23T04:45:24.000Z,4.16
2022-09-23T04:46:24.000Z,4.15
2022-09-23T04:47:24.000Z,4.16
2022-09-23T04:48:24.000Z,4.19
2022-09-23T04:49:24.000Z,4.19
2022-09-23T04:50:24.000Z,4.19
2022-09-23T04:51:25.000Z,4.25
2022-09-23T04:52:25.000Z,4.21
2022-09-23T04:53:25.000Z,4.24
2022-09-23T04:54:25.000Z,4.24
2022-09-23T04:55:25.000Z,4.28
2022-09-23T04:56:25.000Z,4.26
2022-09-23T04:57:25.000Z,4.26
2022-09-23T04:58:25.000Z,4.32
2022-09-23T04:59:25.000Z,4.26
2022-09-23T05:00:25.000Z,4.29
2022-09-23T05:01:25.000Z,4.24
2022-09-23T05:02:25.000Z,4.29
2022-09-23T05:03:25.000Z,4.28
2022-09-23T05:04:25.000Z,4.26
2022-09-23T05:05:25.000Z,4.32
2022-09-23T05:06:25.000Z,4.29
2022-09-23T05:07:25.000Z,4.29
2022-09-23T05:08:25.000Z,4.32
2022-09-23T05:09:26.000Z,4.37
2022-09-23T05:10:26.000Z,4.36
2022-09-23T05:11:26.000Z,4.34
2022-09-23T05:12:26.000Z,4.33
2022-09-23T05:13:26.000Z,4.37
2022-09-23T05:14:26.000Z,4.39
2022-09-23T05:15:26.000Z,4.39
2022-09-23T05:16:26.000Z,4.40
2022-09-23T05:17:26.000Z,4.42
2022-09-23T05:18:26.000Z,4.44
2022-09-23T05:19:26.000Z,4.46
2022-09-23T05:20:26.000Z,4.47
2022-09-23T05:21:26.000Z,4.47
2022-09-23T05:22:26.000Z,4.58
2022-09-23T05:23:26.000Z,4.57
2022-09-23T05:24:26.000Z,4.64
2022-09-23T05:25:26.000Z,4.62
2022-09-23T05:26:26.000Z,4.64
2022-09-23T05:27:26.000Z,4.64
2022-09-23T05:28:26.000Z,4.65
2022-09-23T05:29:26.000Z,4.67
2022-09-23T05:30:26.000Z,4.73
2022-09-23T05:31:27.000Z,4.73
2022-09-23T05:32:27.000Z,4.76
2022-09-23T05:33:27.000Z,4.76
2022-09-23T05:34:27.000Z,4.79
2022-09-23T05:35:27.000Z,4.76
2022-09-23T05:36:27.000Z,4.76
2022-09-23T05:37:27.000Z,4.80
2022-09-23T05:38:27.000Z,4.77
2022-09-23T05:39:27.000Z,4.79
2022-09-23T05:40:27.000Z,4.77
2022-09-23T05:41:27.000Z,4.77
2022-09-23T05:42:27.000Z,4.77
2022-09-23T05:43:27.000Z,4.80
2022-09-23T05:44:27.000Z,4.84
2022-09-23T05:45:27.000Z,4.83
2022-09-23T05:46:27.000Z,4.83
2022-09-23T05:47:27.000Z,4.84
2022-09-23T05:48:27.000Z,4.88
2022-09-23T05:49:27.000Z,4.88
2022-09-23T05:50:27.000Z,4.94
2022-09-23T05:51:27.000Z,4.96
2022-09-23T05:52:27.000Z,4.96
2022-09-23T05:53:27.000Z,5.01
2022-09-23T05:54:27.000Z,5.05
2022-09-23T05:55:28.000Z,5.10
2022-09-23T05:56:28.000Z,5.13
2022-09-23T05:57:28.000Z,5.14
2022-09-23T05:58:28.000Z,5.25
2022-09-23T05:59:28.000Z,5.23
2022-09-23T06:00:28.000Z,5.28
2022-09-23T06:01:28.000Z,5.37
2022-09-23T06:02:28.000Z,5.38
2022-09-23T06:03:28.000Z,5.45
2022-09-23T06:04:28.000Z,5.46
2022-09-23T06:05:28.000Z,5.48
2022-09-23T06:06:28.000Z,5.50
2022-09-23T06:07:28.000Z,5.56
2022-09-23T06:08:28.000Z,5.63
2022-09-23T06:09:28.000Z,5.60
2022-09-23T06:10:28.000Z,5.66
2022-09-23T06:11:28.000Z,5.68
2022-09-23T06:12:28.000Z,5.74
2022-09-23T06:13:28.000Z,5.85
2022-09-23T06:14:28.000Z,5.86
2022-09-23T06:15:28.000Z,5.92
2022-09-23T06:16:28.000Z,5.98
2022-09-23T06:17:28.000Z,5.98
2022-09-23T06:18:28.000Z,6.10
2022-09-23T06:19:28.000Z,6.14
2022-09-23T06:20:29.000Z,6.16
2022-09-23T06:27:47.000Z,6.47
2022-09-23T06:27:47.000Z,6.43
2022-09-23T06:28:47.000Z,6.51
2022-09-23T06:29:47.000Z,6.56
2022-09-23T06:30:47.000Z,6.59
2022-09-23T06:31:47.000Z,6.63
2022-09-23T06:32:46.000Z,6.66
2022-09-23T06:33:46.000Z,6.77
2022-09-23T06:34:46.000Z,6.83
2022-09-23T06:35:46.000Z,6.89
2022-09-23T06:36:46.000Z,6.89
2022-09-23T06:37:46.000Z,6.90
2022-09-23T06:38:46.000Z,6.99
2022-09-23T06:39:46.000Z,7.02
2022-09-23T06:40:46.000Z,7.12
2022-09-23T06:41:46.000Z,7.22
2022-09-23T06:42:46.000Z,7.22
2022-09-23T06:43:46.000Z,7.27
2022-09-23T06:44:46.000Z,7.38
2022-09-23T06:45:46.000Z,7.38
2022-09-23T06:46:46.000Z,7.40
2022-09-23T06:47:46.000Z,7.44
2022-09-23T06:48:46.000Z,7.53
2022-09-23T06:49:46.000Z,7.52
2022-09-23T06:50:46.000Z,7.63
2022-09-23T06:51:46.000Z,7.62
2022-09-23T06:52:46.000Z,7.72
2022-09-23T06:53:46.000Z,7.75
2022-09-23T06:54:46.000Z,7.85
2022-09-23T06:55:46.000Z,7.92
2022-09-23T06:56:46.000Z,7.96
2022-09-23T06:57:46.000Z,8.04
2022-09-23T06:58:46.000Z,8.11
2022-09-23T06:59:46.000Z,8.17
2022-09-23T07:00:46.000Z,8.25
2022-09-23T07:01:46.000Z,8.29
2022-09-23T07:02:46.000Z,8.37
2022-09-23T07:03:46.000Z,8.42
2022-09-23T07:04:46.000Z,8.45
2022-09-23T07:05:46.000Z,8.48
2022-09-23T07:06:46.000Z,8.54
2022-09-23T07:07:46.000Z,8.58
2022-09-23T07:08:46.000Z,8.68
2022-09-23T07:09:46.000Z,8.72
2022-09-23T07:10:46.000Z,8.75
2022-09-23T07:11:46.000Z,8.79
2022-09-23T07:12:46.000Z,8.87
2022-09-23T07:13:46.000Z,8.88
2022-09-23T07:14:46.000Z,8.93
2022-09-23T07:15:46.000Z,8.94
2022-09-23T07:16:46.000Z,8.99
2022-09-23T07:17:46.000Z,9.06
2022-09-23T07:18:46.000Z,9.12
2022-09-23T07:19:46.000Z,9.21
2022-09-23T07:20:46.000Z,9.21
2022-09-23T07:21:46.000Z,9.32
2022-09-23T07:22:46.000Z,9.35
2022-09-23T07:23:46.000Z,9.45
2022-09-23T07:24:45.000Z,9.49
2022-09-23T07:25:45.000Z,9.56
2022-09-23T07:26:45.000Z,9.52
2022-09-23T07:27:45.000Z,9.60
2022-09-23T07:28:45.000Z,9.61
2022-09-23T07:29:45.000Z,9.66
2022-09-23T07:30:45.000Z,9.71
2022-09-23T07:31:45.000Z,9.73
2022-09-23T07:32:45.000Z,9.78
2022-09-23T07:33:45.000Z,9.82
2022-09-23T07:34:45.000Z,9.88
2022-09-23T07:35:45.000Z,9.96
2022-09-23T07:36:45.000Z,10.01
2022-09-23T07:37:45.000Z,10.09
2022-09-23T07:38:45.000Z,10.10
2022-09-23T07:39:45.000Z,10.14
2022-09-23T07:40:45.000Z,10.19
2022-09-23T07:41:45.000Z,10.24
2022-09-23T07:42:45.000Z,10.26
2022-09-23T07:43:45.000Z,10.26
2022-09-23T07:44:45.000Z,10.33
2022-09-23T07:45:45.000Z,10.37
2022-09-23T07:46:45.000Z,10.42
2022-09-23T07:47:45.000Z,10.59
2022-09-23T07:48:45.000Z,10.60
2022-09-23T07:49:45.000Z,10.62
2022-09-23T07:50:44.000Z,10.68
2022-09-23T07:51:44.000Z,10.70
2022-09-23T07:52:44.000Z,10.73
2022-09-23T07:53:44.000Z,10.78
2022-09-23T07:54:44.000Z,10.84
2022-09-23T07:55:44.000Z,10.86
2022-09-23T07:56:44.000Z,10.89
2022-09-23T07:57:44.000Z,10.95
2022-09-23T07:58:44.000Z,10.95
2022-09-23T07:59:44.000Z,11.02
2022-09-23T08:00:44.000Z,11.07
2022-09-23T08:01:44.000Z,11.09
2022-09-23T08:02:44.000Z,11.07
2022-09-23T08:03:44.000Z,11.13
2022-09-23T08:04:44.000Z,11.11
2022-09-23T08:05:44.000Z,11.20
2022-09-23T08:06:44.000Z,11.24
2022-09-23T08:07:44.000Z,11.27
2022-09-23T08:08:44.000Z,11.29
2022-09-23T08:09:44.000Z,11.35
2022-09-23T08:10:44.000Z,11.36
2022-09-23T08:11:44.000Z,11.43
2022-09-23T08:12:44.000Z,11.52
2022-09-23T08:13:43.000Z,11.56
2022-09-23T08:14:43.000Z,11.54
2022-09-23T08:15:43.000Z,11.57
2022-09-23T08:16:43.000Z,11.61
2022-09-23T08:17:43.000Z,11.65
2022-09-23T08:18:43.000Z,11.68
2022-09-23T08:19:43.000Z,11.78
2022-09-23T08:20:43.000Z,11.78
2022-09-23T08:21:43.000Z,11.83
2022-09-23T08:22:43.000Z,11.89
2022-09-23T08:23:43.000Z,11.93
2022-09-23T08:24:43.000Z,12.02
2022-09-23T08:25:43.000Z,12.05
2022-09-23T08:26:43.000Z,12.08
2022-09-23T08:27:43.000Z,12.12
2022-09-23T08:28:43.000Z,12.16
2022-09-23T08:29:43.000Z,12.26
2022-09-23T08:30:43.000Z,12.31
2022-09-23T08:31:43.000Z,12.39
2022-09-23T08:32:42.000Z,12.41
2022-09-23T08:33:42.000Z,12.52
2022-09-23T08:34:42.000Z,12.49
2022-09-23T08:35:42.000Z,12.57
2022-09-23T08:36:42.000Z,12.59
2022-09-23T08:37:42.000Z,12.63
2022-09-23T08:38:42.000Z,12.64
2022-09-23T08:39:42.000Z,12.66
2022-09-23T08:40:42.000Z,12.69
2022-09-23T08:41:42.000Z,12.70
2022-09-23T08:42:42.000Z,12.71
2022-09-23T08:43:42.000Z,12.77
2022-09-23T08:44:42.000Z,12.82
2022-09-23T08:45:42.000Z,12.85
2022-09-23T08:46:42.000Z,12.95
2022-09-23T08:47:42.000Z,12.95
2022-09-23T08:48:42.000Z,12.99
2022-09-23T08:49:41.000Z,13.04
2022-09-23T08:50:41.000Z,13.07
2022-09-23T08:51:41.000Z,13.06
2022-09-23T08:52:41.000Z,13.17
2022-09-23T08:53:41.000Z,13.21
2022-09-23T08:54:41.000Z,13.24
2022-09-23T08:55:41.000Z,13.24
2022-09-23T08:56:41.000Z,13.32
2022-09-23T08:57:41.000Z,13.32
2022-09-23T08:58:41.000Z,13.36
2022-09-23T08:59:41.000Z,13.33
2022-09-23T09:00:41.000Z,13.36
2022-09-23T09:01:41.000Z,13.38
2022-09-23T09:01:41.000Z,13.38
2022-09-23T09:02:41.000Z,13.40
2022-09-23T09:02:41.000Z,13.40
2022-09-23T09:03:41.000Z,13.46
2022-09-23T09:03:41.000Z,13.46
2022-09-23T09:04:40.000Z,13.44
2022-09-23T09:04:40.000Z,13.44
2022-09-23T09:05:40.000Z,13.49
2022-09-23T09:05:40.000Z,13.49
2022-09-23T09:06:40.000Z,13.52
2022-09-23T09:07:40.000Z,13.58
2022-09-23T09:08:40.000Z,13.54
2022-09-23T09:09:40.000Z,13.58
2022-09-23T09:10:40.000Z,13.59
2022-09-23T09:11:40.000Z,13.62
2022-09-23T09:11:40.000Z,13.62
2022-09-23T09:12:40.000Z,13.65
2022-09-23T09:12:40.000Z,13.65
2022-09-23T09:13:40.000Z,13.69
2022-09-23T09:13:40.000Z,13.69
2022-09-23T09:14:40.000Z,13.71
2022-09-23T09:14:40.000Z,13.71
2022-09-23T09:15:40.000Z,13.76
2022-09-23T09:15:40.000Z,13.76
2022-09-23T09:16:40.000Z,13.77
2022-09-23T09:17:40.000Z,13.79
2022-09-23T09:18:39.000Z,13.79
2022-09-23T09:19:39.000Z,13.83
2022-09-23T09:20:39.000Z,13.87
2022-09-23T09:21:39.000Z,13.89
2022-09-23T09:22:39.000Z,13.91
2022-09-23T09:23:39.000Z,13.96
2022-09-23T09:24:39.000Z,13.98
2022-09-23T09:25:39.000Z,14.07
2022-09-23T09:26:39.000Z,14.07
2022-09-23T09:27:39.000Z,14.14
2022-09-23T09:28:39.000Z,14.17
2022-09-23T09:29:39.000Z,14.17
2022-09-23T09:30:39.000Z,14.24
2022-09-23T09:31:38.000Z,14.27
2022-09-23T09:32:38.000Z,14.29
2022-09-23T09:33:38.000Z,14.31
2022-09-23T09:34:38.000Z,14.31
2022-09-23T09:35:38.000Z,14.34
2022-09-23T09:36:38.000Z,14.42
2022-09-23T09:37:38.000Z,14.43
2022-09-23T09:38:38.000Z,14.50
2022-09-23T09:39:38.000Z,14.54
2022-09-23T09:40:38.000Z,14.56
2022-09-23T09:41:38.000Z,14.65
2022-09-23T09:42:38.000Z,14.67
2022-09-23T09:43:38.000Z,14.68
2022-09-23T09:44:37.000Z,14.71
2022-09-23T09:45:37.000Z,14.72
2022-09-23T09:46:37.000Z,14.81
2022-09-23T09:47:37.000Z,14.87
2022-09-23T09:48:37.000Z,14.88
2022-09-23T09:49:37.000Z,14.93
2022-09-23T09:50:37.000Z,14.98
2022-09-23T09:51:37.000Z,15.02
2022-09-23T09:52:37.000Z,15.03
2022-09-23T09:53:37.000Z,15.03
2022-09-23T09:54:37.000Z,15.08
2022-09-23T09:55:37.000Z,15.09
2022-09-23T09:56:36.000Z,15.13
2022-09-23T09:57:36.000Z,15.17
2022-09-23T09:58:36.000Z,15.17
2022-09-23T09:59:36.000Z,15.23
2022-09-23T10:00:36.000Z,15.27
2022-09-23T10:01:36.000Z,15.31
2022-09-23T10:02:36.000Z,15.30
2022-09-23T10:03:36.000Z,15.31
2022-09-23T10:04:36.000Z,15.33
2022-09-23T10:05:36.000Z,15.36
2022-09-23T10:06:36.000Z,15.41
2022-09-23T10:07:35.000Z,15.41
2022-09-23T10:08:35.000Z,15.51
2022-09-23T10:09:35.000Z,15.49
2022-09-23T10:10:35.000Z,15.54
2022-09-23T10:11:35.000Z,15.51
2022-09-23T10:12:35.000Z,15.54
2022-09-23T10:13:35.000Z,15.57
2022-09-23T10:14:35.000Z,15.61
2022-09-23T10:15:35.000Z,15.60
2022-09-23T10:16:35.000Z,15.64
2022-09-23T10:17:35.000Z,15.70
2022-09-23T10:18:34.000Z,15.70
2022-09-23T10:19:34.000Z,15.67
2022-09-23T10:20:34.000Z,15.64
2022-09-23T10:21:34.000Z,15.67
2022-09-23T10:22:34.000Z,15.68
2022-09-23T10:23:34.000Z,15.70
2022-09-23T10:24:34.000Z,15.74
2022-09-23T10:25:34.000Z,15.76
2022-09-23T10:26:34.000Z,15.79
2022-09-23T10:27:34.000Z,15.85
2022-09-23T10:28:34.000Z,15.86
2022-09-23T10:29:33.000Z,15.92
2022-09-23T10:30:33.000Z,15.93
2022-09-23T10:31:33.000Z,15.99
2022-09-23T10:32:33.000Z,16.01
2022-09-23T10:33:33.000Z,16.07
2022-09-23T10:34:33.000Z,16.07
2022-09-23T10:35:33.000Z,16.12
2022-09-23T10:36:33.000Z,16.12
2022-09-23T10:37:33.000Z,16.14
2022-09-23T10:38:33.000Z,16.14
2022-09-23T10:39:32.000Z,16.15
2022-09-23T10:40:32.000Z,16.12
2022-09-23T10:41:32.000Z,16.16
2022-09-23T10:42:32.000Z,16.18
2022-09-23T10:43:32.000Z,16.14
2022-09-23T10:44:32.000Z,16.16
2022-09-23T10:45:32.000Z,16.25
2022-09-23T10:46:32.000Z,16.22
2022-09-23T10:47:32.000Z,16.23
2022-09-23T10:48:32.000Z,16.26
2022-09-23T10:49:31.000Z,16.30
2022-09-23T10:50:31.000Z,16.31
2022-09-23T10:51:31.000Z,16.31
2022-09-23T10:52:31.000Z,16.33
2022-09-23T10:53:31.000Z,16.35
2022-09-23T10:54:31.000Z,16.38
2022-09-23T10:55:31.000Z,16.37
2022-09-23T10:56:31.000Z,16.40
2022-09-23T10:57:31.000Z,16.37
2022-09-23T10:58:30.000Z,16.41
2022-09-23T10:59:30.000Z,16.44
2022-09-23T11:00:30.000Z,16.42
2022-09-23T11:01:30.000Z,16.45
2022-09-23T11:02:30.000Z,16.45
2022-09-23T11:03:30.000Z,16.50
2022-09-23T11:04:30.000Z,16.49
2022-09-23T11:05:30.000Z,16.49
2022-09-23T11:06:30.000Z,16.45
2022-09-23T11:07:30.000Z,16.45
2022-09-23T11:08:29.000Z,16.50
2022-09-23T11:09:29.000Z,16.49
2022-09-23T11:10:29.000Z,16.50
2022-09-23T11:11:29.000Z,16.49
2022-09-23T11:12:29.000Z,16.48
2022-09-23T11:13:29.000Z,16.50
2022-09-23T11:14:29.000Z,16.55
2022-09-23T11:15:29.000Z,16.55
2022-09-23T11:16:29.000Z,16.56
2022-09-23T11:17:29.000Z,16.53
2022-09-23T11:18:28.000Z,16.55
2022-09-23T11:19:28.000Z,16.56
2022-09-23T11:20:28.000Z,16.55
2022-09-23T11:21:28.000Z,16.56
2022-09-23T11:22:28.000Z,16.59
2022-09-23T11:23:28.000Z,16.65
2022-09-23T11:24:28.000Z,16.68
2022-09-23T11:25:28.000Z,16.67
2022-09-23T11:26:28.000Z,16.70
2022-09-23T11:27:28.000Z,16.71
2022-09-23T11:28:27.000Z,16.74
2022-09-23T11:29:27.000Z,16.88
2022-09-23T11:30:27.000Z,16.88
2022-09-23T11:31:27.000Z,16.93
2022-09-23T11:32:27.000Z,16.92
2022-09-23T11:33:27.000Z,16.89
2022-09-23T11:34:27.000Z,16.86
2022-09-23T11:35:27.000Z,16.88
2022-09-23T11:36:27.000Z,16.85
2022-09-23T11:37:26.000Z,16.78
2022-09-23T11:38:26.000Z,16.80
2022-09-23T11:39:26.000Z,16.78
2022-09-23T11:40:26.000Z,16.86
2022-09-23T11:41:26.000Z,16.80
2022-09-23T11:42:26.000Z,16.80
2022-09-23T11:43:26.000Z,16.83
2022-09-23T11:44:26.000Z,16.81
2022-09-23T11:45:26.000Z,16.81
2022-09-23T11:46:26.000Z,16.88
2022-09-23T11:47:25.000Z,16.88
2022-09-23T11:48:25.000Z,16.99
2022-09-23T11:49:25.000Z,16.95
2022-09-23T11:50:25.000Z,16.98
2022-09-23T11:51:25.000Z,16.93
2022-09-23T11:52:25.000Z,16.93
2022-09-23T11:53:25.000Z,16.93
2022-09-23T11:54:25.000Z,16.88
2022-09-23T11:55:25.000Z,16.80
2022-09-23T11:56:24.000Z,16.78
2022-09-23T11:56:24.000Z,16.78
2022-09-23T11:57:24.000Z,16.71
2022-09-23T11:57:24.000Z,16.71
2022-09-23T11:58:24.000Z,16.67
2022-09-23T11:58:24.000Z,16.67
2022-09-23T11:59:24.000Z,16.67
2022-09-23T11:59:24.000Z,16.67
2022-09-23T12:00:24.000Z,16.63
2022-09-23T12:00:24.000Z,16.63
2022-09-23T12:01:24.000Z,16.55
2022-09-23T12:02:24.000Z,16.52
2022-09-23T12:03:24.000Z,16.48
2022-09-23T12:04:24.000Z,16.50
2022-09-23T12:05:24.000Z,16.48
2022-09-23T12:06:23.000Z,16.48
2022-09-23T12:07:23.000Z,16.52
2022-09-23T12:08:23.000Z,16.55
2022-09-23T12:09:23.000Z,16.60
2022-09-23T12:10:23.000Z,16.67
2022-09-23T12:11:23.000Z,16.80
2022-09-23T12:12:23.000Z,16.93
2022-09-23T12:13:23.000Z,17.07
2022-09-23T12:14:23.000Z,17.13
2022-09-23T12:15:22.000Z,17.15
2022-09-23T12:16:22.000Z,17.15
2022-09-23T12:16:22.000Z,17.15
2022-09-23T12:17:22.000Z,17.18
2022-09-23T12:17:22.000Z,17.18
2022-09-23T12:18:22.000Z,17.20
2022-09-23T12:18:22.000Z,17.20
2022-09-23T12:19:22.000Z,17.26
2022-09-23T12:19:22.000Z,17.26
2022-09-23T12:20:22.000Z,17.25
2022-09-23T12:20:22.000Z,17.25
2022-09-23T12:21:22.000Z,17.22
2022-09-23T12:22:22.000Z,17.26
2022-09-23T12:23:22.000Z,17.30
2022-09-23T12:24:22.000Z,17.33
2022-09-23T12:25:21.000Z,17.38
2022-09-23T12:26:21.000Z,17.40
2022-09-23T12:27:21.000Z,17.44
2022-09-23T12:28:21.000Z,17.51
2022-09-23T12:29:21.000Z,17.57
2022-09-23T12:30:21.000Z,17.64
2022-09-23T12:31:21.000Z,17.74
2022-09-23T12:32:21.000Z,17.78
2022-09-23T12:33:21.000Z,17.84
2022-09-23T12:34:20.000Z,17.89
2022-09-23T12:35:20.000Z,17.99
2022-09-23T12:36:20.000Z,17.94
2022-09-23T12:37:20.000Z,17.95
2022-09-23T12:38:20.000Z,17.91
2022-09-23T12:39:20.000Z,17.89
2022-09-23T12:40:20.000Z,17.91
2022-09-23T12:41:20.000Z,17.94
2022-09-23T12:42:20.000Z,17.92
2022-09-23T12:43:19.000Z,17.89
2022-09-23T12:44:19.000Z,17.91
2022-09-23T12:45:19.000Z,17.88
2022-09-23T12:46:19.000Z,17.76
2022-09-23T12:47:19.000Z,17.71
2022-09-23T12:48:19.000Z,17.63
2022-09-23T12:49:19.000Z,17.59
2022-09-23T12:50:19.000Z,17.51
2022-09-23T12:51:19.000Z,17.46
2022-09-23T12:52:18.000Z,17.40